Time;durP1;ratioP1;P1;durP2;ratioP2;P2;SDS_P1;SDS_P2;PMS_P1;PMS_P2;Temp;Humidity;BMP_temperature;BMP_pressure;BME280_temperature;BME280_humidity;BME280_pressure;Samples;Min_cycle;Max_cycle;Signal;HPM_P1;HPM_P2
2021/03/08 00:01:40;;;;;;;9.20;4.50;;;3.00;99.90;;;;;;4893366;29;20051;-85
2021/03/08 00:04:14;;;;;;;12.77;4.40;;;2.90;99.90;;;;;;4879003;29;20028;-84
2021/03/08 00:06:43;;;;;;;8.63;4.47;;;3.10;99.90;;;;;;4889831;29;20130;-83
2021/03/08 00:09:16;;;;;;;11.23;5.07;;;3.00;99.90;;;;;;4886418;29;20037;-82
2021/03/08 00:11:46;;;;;;;10.53;4.77;;;2.80;99.90;;;;;;4891386;29;20057;-82
2021/03/08 00:14:17;;;;;;;8.50;4.50;;;2.70;99.90;;;;;;4883789;29;20063;-82
2021/03/08 00:16:49;;;;;;;8.47;3.70;;;2.70;99.90;;;;;;4886774;29;20063;-82
2021/03/08 00:19:30;;;;;;;11.50;4.80;;;2.80;99.90;;;;;;4874470;29;20051;-85
2021/03/08 00:22:06;;;;;;;10.73;4.50;;;2.70;99.90;;;;;;4900228;29;20040;-84
2021/03/08 00:24:35;;;;;;;10.07;5.03;;;2.70;99.90;;;;;;4888913;29;20053;-84
2021/03/08 00:27:07;;;;;;;7.53;4.28;;;2.80;99.90;;;;;;4878960;29;20055;-84
2021/03/08 00:32:42;;;;;;;13.60;5.07;;;2.70;99.90;;;;;;5607082;23;20032;-82
2021/03/08 00:35:14;;;;;;;12.65;5.25;;;2.70;99.90;;;;;;4913007;29;20060;-83
2021/03/08 00:37:47;;;;;;;9.60;4.53;;;2.80;99.90;;;;;;4901670;29;20042;-84
2021/03/08 00:40:25;;;;;;;12.47;5.57;;;2.90;99.90;;;;;;4917592;29;20048;-83
2021/03/08 00:42:56;;;;;;;13.10;5.33;;;2.80;99.90;;;;;;4886593;29;20044;-84
2021/03/08 00:45:26;;;;;;;9.93;5.13;;;2.80;99.90;;;;;;4882045;29;20059;-83
2021/03/08 00:48:06;;;;;;;9.33;4.90;;;2.80;99.90;;;;;;4920343;29;20056;-85
2021/03/08 00:50:46;;;;;;;10.27;4.80;;;2.70;99.90;;;;;;4895793;29;20045;-84
2021/03/08 00:53:25;;;;;;;12.70;5.80;;;2.60;99.90;;;;;;4903692;29;20045;-85
2021/03/08 00:55:58;;;;;;;10.27;5.30;;;2.50;99.90;;;;;;4889970;29;20032;-84
2021/03/08 00:58:37;;;;;;;13.13;6.10;;;2.60;99.90;;;;;;4890464;29;20057;-85
2021/03/08 01:01:12;;;;;;;13.63;5.80;;;2.70;99.90;;;;;;4919014;29;20044;-84
2021/03/08 01:03:44;;;;;;;14.40;5.70;;;2.60;99.90;;;;;;4889572;29;20065;-84
2021/03/08 01:10:47;;;;;;;12.30;6.10;;;2.50;99.90;;;;;;4918335;29;20033;-82
2021/03/08 01:13:23;;;;;;;12.97;6.20;;;2.60;99.90;;;;;;4895045;29;20037;-80
2021/03/08 01:15:54;;;;;;;14.40;7.00;;;2.60;99.90;;;;;;4894901;29;20048;-81
2021/03/08 01:18:23;;;;;;;17.88;7.18;;;2.40;99.90;;;;;;4895025;29;20037;-82
2021/03/08 01:20:54;;;;;;;14.10;7.53;;;2.40;99.90;;;;;;4891495;29;20053;-81
2021/03/08 01:23:23;;;;;;;13.03;6.80;;;2.40;99.90;;;;;;4883808;29;20068;-81
2021/03/08 01:25:55;;;;;;;15.73;6.60;;;2.30;99.90;;;;;;4907237;29;20052;-85
2021/03/08 01:28:25;;;;;;;12.73;6.47;;;2.40;99.90;;;;;;4911290;29;20036;-83
2021/03/08 01:30:54;;;;;;;16.47;6.30;;;2.30;99.90;;;;;;4894649;29;20047;-84
2021/03/08 01:33:23;;;;;;;15.43;6.30;;;2.30;99.90;;;;;;4889290;29;20033;-83
2021/03/08 01:35:52;;;;;;;12.33;6.87;;;2.20;99.90;;;;;;4889744;29;20097;-82
2021/03/08 01:38:24;;;;;;;19.60;6.60;;;2.30;99.90;;;;;;4882745;29;20025;-84
2021/03/08 01:41:04;;;;;;;12.20;6.33;;;2.30;99.90;;;;;;4899153;29;20040;-85
2021/03/08 01:43:39;;;;;;;10.02;5.68;;;2.30;99.90;;;;;;4884971;29;20056;-83
2021/03/08 01:46:09;;;;;;;11.57;5.90;;;2.30;99.90;;;;;;4912893;29;20058;-84
2021/03/08 01:48:41;;;;;;;12.20;5.77;;;2.40;99.90;;;;;;4905803;29;20056;-84
2021/03/08 01:51:12;;;;;;;11.50;6.17;;;2.30;99.90;;;;;;4924723;29;20052;-82
2021/03/08 01:53:41;;;;;;;10.47;5.80;;;2.30;99.90;;;;;;4902691;29;20049;-84
2021/03/08 01:56:14;;;;;;;10.47;5.93;;;2.20;99.90;;;;;;4893881;29;20268;-85
2021/03/08 01:58:44;;;;;;;12.23;6.07;;;2.10;99.90;;;;;;4920878;29;20044;-83
2021/03/08 02:01:14;;;;;;;12.57;5.87;;;2.20;99.90;;;;;;4889897;29;20056;-82
2021/03/08 02:03:42;;;;;;;13.13;6.07;;;2.30;99.90;;;;;;4872959;29;20051;-83
2021/03/08 02:06:13;;;;;;;8.60;5.10;;;2.30;99.90;;;;;;4887792;29;20063;-82
2021/03/08 02:08:41;;;;;;;10.40;5.23;;;2.40;99.90;;;;;;4883528;29;20045;-82
2021/03/08 02:11:11;;;;;;;11.27;6.30;;;2.70;99.90;;;;;;4889625;29;20062;-82
2021/03/08 02:14:17;;;;;;;11.10;6.33;;;2.70;99.90;;;;;;4885580;29;20298;-83
2021/03/08 02:16:55;;;;;;;10.87;5.70;;;2.60;99.90;;;;;;4910599;29;20040;-84
2021/03/08 02:20:00;;;;;;;9.63;5.97;;;2.50;99.90;;;;;;4900427;29;20063;-81
2021/03/08 02:23:16;;;;;;;10.93;6.00;;;2.40;99.90;;;;;;4874156;29;20059;-82
2021/03/08 02:26:24;;;;;;;11.50;6.23;;;2.30;99.90;;;;;;4894755;29;20060;-82
2021/03/08 02:29:09;;;;;;;12.53;6.40;;;2.40;99.90;;;;;;4840801;29;20056;-83
2021/03/08 02:31:39;;;;;;;14.27;6.80;;;2.30;99.90;;;;;;4892565;29;20067;-83
2021/03/08 02:34:12;;;;;;;14.47;6.90;;;2.30;99.90;;;;;;4883014;29;20056;-82
2021/03/08 10:18:17;;;;;;;9.75;4.20;;;12.70;59.60;;;;;;4924053;29;20047;-96
2021/03/08 10:21:07;;;;;;;8.48;4.20;;;13.60;52.10;;;;;;4906663;29;20072;-96
2021/03/08 10:23:42;;;;;;;13.23;4.15;;;13.90;50.70;;;;;;4904198;29;20053;-96
2021/03/08 10:26:24;;;;;;;7.93;4.10;;;14.20;49.70;;;;;;4915027;29;20056;-96
2021/03/08 10:28:54;;;;;;;9.85;4.45;;;14.40;46.40;;;;;;4908314;29;20056;-94
2021/03/08 10:31:30;;;;;;;8.55;4.53;;;14.20;47.50;;;;;;4893855;29;20060;-95
2021/03/08 10:37:29;;;;;;;12.63;5.05;;;15.40;45.60;;;;;;4933443;29;20039;-94
2021/03/08 10:39:57;;;;;;;11.80;5.10;;;16.30;44.80;;;;;;4910309;29;20039;-94
2021/03/08 10:42:26;;;;;;;20.02;4.68;;;17.10;42.10;;;;;;4906057;29;20048;-94
2021/03/08 10:44:57;;;;;;;10.13;4.80;;;17.50;40.70;;;;;;4907797;29;20044;-94
2021/03/08 10:47:25;;;;;;;10.68;4.05;;;18.00;38.90;;;;;;4889331;29;20494;-94
2021/03/08 10:49:58;;;;;;;9.45;4.03;;;18.20;37.30;;;;;;4907896;29;20122;-94
2021/03/08 10:52:28;;;;;;;13.82;3.97;;;18.60;37.20;;;;;;4904760;29;20056;-94
2021/03/08 10:55:00;;;;;;;21.23;4.50;;;18.90;36.00;;;;;;4918356;29;20060;-96
2021/03/08 10:57:29;;;;;;;21.38;4.88;;;19.10;35.30;;;;;;4904276;29;20052;-95
2021/03/08 10:59:58;;;;;;;13.68;3.50;;;19.60;33.50;;;;;;4899823;29;20056;-94
2021/03/08 11:02:35;;;;;;;10.95;4.05;;;19.70;31.60;;;;;;4904286;29;20063;-95
2021/03/08 11:05:32;;;;;;;14.50;4.18;;;19.70;32.00;;;;;;4920554;29;20076;-96
2021/03/08 11:08:22;;;;;;;9.68;3.90;;;19.50;33.60;;;;;;4905961;29;20055;-96
2021/03/08 11:11:05;;;;;;;13.35;3.78;;;19.90;32.90;;;;;;4914176;29;20052;-94
2021/03/08 11:13:35;;;;;;;13.45;3.90;;;20.00;31.20;;;;;;4892165;29;20052;-96
2021/03/08 11:16:15;;;;;;;14.77;4.40;;;20.40;30.80;;;;;;4890227;29;20055;-96
2021/03/08 11:18:47;;;;;;;13.20;3.90;;;20.80;30.60;;;;;;4894829;29;20053;-96
2021/03/08 11:21:46;;;;;;;8.48;3.72;;;20.90;29.70;;;;;;4881788;29;20064;-96
2021/03/08 11:24:30;;;;;;;8.38;3.33;;;20.60;29.00;;;;;;4890524;29;20056;-96
2021/03/08 11:27:17;;;;;;;12.98;3.33;;;20.90;29.00;;;;;;4891999;29;20052;-96
2021/03/08 11:30:18;;;;;;;16.15;3.50;;;21.00;28.80;;;;;;4893696;29;20072;-96
2021/03/08 11:32:52;;;;;;;11.57;3.42;;;21.10;29.00;;;;;;4876458;29;20056;-96
2021/03/08 11:35:23;;;;;;;7.78;3.55;;;21.50;29.20;;;;;;4877373;29;20048;-95
2021/03/08 11:38:20;;;;;;;11.93;3.83;;;22.20;29.10;;;;;;4877108;29;20446;-96
2021/03/08 11:40:53;;;;;;;7.70;3.70;;;22.60;28.30;;;;;;4899030;29;20067;-96
2021/03/08 11:43:27;;;;;;;20.08;4.13;;;23.40;27.00;;;;;;4898749;29;20055;-96
2021/03/08 11:48:59;;;;;;;10.13;3.38;;;21.80;28.40;;;;;;4857992;29;20053;-95
2021/03/08 11:51:35;;;;;;;78.90;8.15;;;21.80;27.50;;;;;;4893572;29;20053;-96
2021/03/08 11:54:25;;;;;;;11.60;2.95;;;21.90;27.20;;;;;;4881936;29;20029;-96
2021/03/08 11:57:24;;;;;;;;;;;;;;;;;;;;;
2021/03/08 12:00:29;;;;;;;8.20;3.25;;;23.30;26.90;;;;;;4858786;29;20112;-96
2021/03/08 12:03:13;;;;;;;39.65;5.97;;;24.20;26.30;;;;;;4878417;29;20049;-96
2021/03/08 12:18:01;;;;;;;6.22;2.83;;;25.60;25.20;;;;;;5018455;23;20032;-96
2021/03/08 12:20:33;;;;;;;8.27;3.50;;;26.00;24.50;;;;;;4923702;29;20056;-96
2021/03/08 12:23:03;;;;;;;9.30;3.58;;;24.30;25.50;;;;;;4923493;29;20036;-96
2021/03/08 12:25:32;;;;;;;7.63;3.03;;;22.30;27.00;;;;;;4904302;29;20037;-94
2021/03/08 12:28:06;;;;;;;38.35;5.30;;;21.40;28.00;;;;;;4905828;29;20066;-96
2021/03/08 12:30:38;;;;;;;11.45;3.33;;;20.20;28.10;;;;;;4890192;29;20045;-96
2021/03/08 12:33:17;;;;;;;16.33;4.43;;;19.70;29.10;;;;;;5295536;23;20052;-87
2021/03/08 12:36:03;;;;;;;6.70;3.25;;;21.00;28.90;;;;;;4900215;29;20366;-94
2021/03/08 12:38:48;;;;;;;11.70;3.85;;;22.80;27.40;;;;;;4869399;29;20047;-96
2021/03/08 12:41:20;;;;;;;24.45;4.22;;;22.80;26.80;;;;;;4865267;29;20057;-96
2021/03/08 12:44:01;;;;;;;17.38;3.97;;;21.30;27.40;;;;;;4847284;29;20079;-96
2021/03/08 12:46:33;;;;;;;11.45;3.42;;;19.70;29.00;;;;;;4846728;29;20061;-96
2021/03/08 12:49:15;;;;;;;21.10;4.68;;;18.10;30.10;;;;;;4872625;29;20040;-96
2021/03/08 12:51:57;;;;;;;9.20;3.50;;;16.70;31.50;;;;;;4882725;29;20467;-95
2021/03/08 12:57:15;;;;;;;12.48;3.38;;;14.90;34.20;;;;;;5259092;23;20051;-93
2021/03/08 12:59:44;;;;;;;24.83;3.65;;;14.50;35.60;;;;;;4901489;29;20059;-96
2021/03/08 13:02:16;;;;;;;25.20;4.25;;;14.00;36.30;;;;;;4895189;29;20398;-94
2021/03/08 13:05:02;;;;;;;14.73;3.72;;;14.10;36.60;;;;;;4922653;29;20481;-96
2021/03/08 13:07:55;;;;;;;11.52;3.30;;;14.70;35.40;;;;;;4919775;29;20058;-96
2021/03/08 13:10:32;;;;;;;5.82;2.85;;;14.70;34.50;;;;;;4922319;29;20060;-96
2021/03/08 13:13:21;;;;;;;;;;;;;;;;;;;;;
2021/03/08 13:16:01;;;;;;;22.83;3.85;;;15.80;33.20;;;;;;4918930;29;20059;-96
2021/03/08 13:18:35;;;;;;;12.45;3.22;;;15.70;32.90;;;;;;4915746;29;20051;-96
2021/03/08 13:21:13;;;;;;;6.38;2.90;;;16.30;33.10;;;;;;4936419;29;20056;-96
2021/03/08 13:23:53;;;;;;;6.65;2.47;;;18.30;31.30;;;;;;4923654;29;20076;-96
2021/03/08 13:29:24;;;;;;;10.35;2.58;;;22.10;27.40;;;;;;5289780;23;20052;-96
2021/03/08 13:35:01;;;;;;;4.65;2.53;;;23.20;26.30;;;;;;5370253;23;20048;-94
2021/03/08 13:44:00;;;;;;;7.43;2.47;;;24.90;25.60;;;;;;5361229;23;20044;-96
2021/03/08 13:49:36;;;;;;;11.27;3.10;;;26.80;24.50;;;;;;4927176;29;20044;-96
2021/03/08 13:52:13;;;;;;;10.13;3.13;;;27.70;23.70;;;;;;5107734;23;20232;-88
2021/03/08 13:55:01;;;;;;;7.65;2.97;;;27.80;23.80;;;;;;5504820;23;20043;-96
2021/03/08 13:58:09;;;;;;;8.43;2.83;;;28.10;23.70;;;;;;4910720;29;20046;-96
2021/03/08 14:00:58;;;;;;;9.77;3.53;;;28.50;23.40;;;;;;4909183;29;20074;-96
2021/03/08 14:03:37;;;;;;;7.05;2.35;;;28.90;23.20;;;;;;4897157;29;20066;-96
2021/03/08 14:06:39;;;;;;;;;;;;;;;;;;;;;
2021/03/08 14:09:25;;;;;;;5.55;2.35;;;28.90;22.70;;;;;;4923041;29;20059;-96
2021/03/08 14:12:13;;;;;;;;;;;;;;;;;;;;;
2021/03/08 14:14:48;;;;;;;9.20;2.55;;;25.30;23.20;;;;;;4907302;29;20059;-96
2021/03/08 14:17:33;;;;;;;7.88;2.88;;;22.40;24.90;;;;;;4909024;29;20055;-96
2021/03/08 14:20:35;;;;;;;7.85;2.50;;;19.90;26.60;;;;;;5166028;23;20149;31
2021/03/08 14:29:11;;;;;;;5.03;2.33;;;15.70;30.20;;;;;;4884081;29;20049;-94
2021/03/08 14:31:39;;;;;;;13.27;3.20;;;16.50;30.00;;;;;;4871683;29;20068;-96
2021/03/08 14:34:07;;;;;;;12.50;2.80;;;16.90;29.50;;;;;;4872762;29;20057;-92
2021/03/08 14:36:36;;;;;;;7.47;3.58;;;17.30;29.50;;;;;;4858138;29;20061;-94
2021/03/08 14:39:05;;;;;;;9.77;3.20;;;18.20;28.70;;;;;;4852016;29;20061;-94
2021/03/08 14:41:32;;;;;;;6.93;2.30;;;18.40;27.90;;;;;;4871328;29;20064;-94
2021/03/08 14:44:01;;;;;;;11.07;2.33;;;17.90;28.20;;;;;;4851681;29;20384;-94
2021/03/08 14:46:33;;;;;;;6.47;2.60;;;18.50;28.10;;;;;;4881684;29;20064;-93
2021/03/08 14:49:03;;;;;;;11.07;3.30;;;19.10;26.70;;;;;;4857537;29;20052;-93
2021/03/08 14:51:33;;;;;;;5.03;2.53;;;20.30;26.90;;;;;;4866555;29;20057;-95
2021/03/08 14:54:01;;;;;;;7.57;3.13;;;21.50;25.60;;;;;;4870962;29;20068;-95
2021/03/08 14:56:31;;;;;;;11.50;2.28;;;22.40;25.10;;;;;;4873334;29;20052;-93
2021/03/08 14:58:59;;;;;;;5.60;2.13;;;23.10;24.50;;;;;;4864169;29;20068;-96
2021/03/08 15:01:31;;;;;;;8.60;2.53;;;23.10;24.50;;;;;;4875602;29;20049;-95
2021/03/08 15:04:03;;;;;;;8.38;3.00;;;23.60;24.30;;;;;;4855437;29;20062;-96
2021/03/08 15:06:31;;;;;;;4.75;2.50;;;23.90;24.10;;;;;;4882182;29;20065;-95
2021/03/08 15:09:00;;;;;;;5.00;1.83;;;24.00;23.70;;;;;;4873022;29;20068;-94
2021/03/08 15:11:29;;;;;;;10.25;3.10;;;23.80;24.30;;;;;;4891828;29;20045;-96
2021/03/08 15:13:59;;;;;;;6.00;2.78;;;23.40;24.10;;;;;;4859428;29;20058;-94
2021/03/08 15:16:31;;;;;;;7.72;2.90;;;23.60;24.40;;;;;;4889654;29;20057;-96
2021/03/08 15:19:01;;;;;;;5.05;2.17;;;23.80;24.20;;;;;;4868744;29;20071;-96
2021/03/08 15:24:20;;;;;;;6.43;2.80;;;23.30;24.30;;;;;;4886103;29;20047;-96
2021/03/08 15:26:50;;;;;;;6.57;2.45;;;21.60;25.50;;;;;;4887168;29;20055;-94
2021/03/08 15:32:09;;;;;;;10.02;2.10;;;17.80;28.00;;;;;;4876391;29;20048;-95
2021/03/08 15:34:40;;;;;;;8.10;2.47;;;16.00;29.60;;;;;;4864278;29;20074;-95
2021/03/08 15:37:12;;;;;;;8.43;2.97;;;14.70;30.80;;;;;;4905949;29;20064;-94
2021/03/08 15:39:41;;;;;;;6.55;2.90;;;13.70;31.90;;;;;;4877994;29;20104;-96
2021/03/08 15:42:12;;;;;;;19.83;3.33;;;13.10;32.90;;;;;;4897540;29;20056;-96
2021/03/08 15:44:40;;;;;;;8.65;2.95;;;12.40;33.90;;;;;;4896891;29;20067;-96
2021/03/08 15:47:07;;;;;;;7.03;2.20;;;12.00;34.60;;;;;;4895921;29;20063;-96
2021/03/08 15:49:36;;;;;;;8.32;3.55;;;11.50;35.30;;;;;;4896312;29;20060;-96
2021/03/08 15:52:06;;;;;;;7.00;3.25;;;11.10;36.10;;;;;;4893705;29;20059;-92
2021/03/08 15:54:34;;;;;;;21.85;6.50;;;10.60;36.60;;;;;;4906007;29;20056;-93
2021/03/08 15:57:02;;;;;;;7.50;2.88;;;10.20;38.20;;;;;;4925404;29;20056;-90
2021/03/08 15:59:32;;;;;;;12.38;2.60;;;9.70;38.80;;;;;;4897525;29;20063;-91
2021/03/08 16:02:00;;;;;;;8.07;2.60;;;9.40;39.50;;;;;;4890563;29;20501;-91
2021/03/08 16:04:27;;;;;;;8.52;2.90;;;9.20;40.30;;;;;;4882276;29;20048;-91
2021/03/08 16:06:55;;;;;;;12.00;3.20;;;9.10;41.10;;;;;;4898780;29;20118;-93
2021/03/08 16:09:23;;;;;;;13.48;4.43;;;8.90;40.60;;;;;;4896056;29;20062;-90
2021/03/08 16:11:52;;;;;;;11.37;3.70;;;8.90;43.20;;;;;;4896364;29;20056;-93
2021/03/08 16:14:26;;;;;;;8.15;2.70;;;8.80;41.90;;;;;;4894453;29;20295;-94
2021/03/08 16:16:54;;;;;;;9.68;2.20;;;8.60;41.40;;;;;;4914500;29;20049;-92
2021/03/08 16:19:29;;;;;;;4.57;1.73;;;8.60;41.00;;;;;;4894150;29;20317;-95
2021/03/08 16:22:20;;;;;;;6.25;2.40;;;8.40;40.90;;;;;;4918449;29;20112;-94
2021/03/08 16:24:51;;;;;;;4.93;1.92;;;8.20;40.80;;;;;;4922284;29;20044;-95
2021/03/08 16:27:21;;;;;;;10.35;2.70;;;8.20;40.90;;;;;;4886709;29;20042;-94
2021/03/08 16:29:50;;;;;;;6.38;2.03;;;8.00;41.50;;;;;;4880818;29;20071;-94
2021/03/08 16:32:17;;;;;;;10.35;3.10;;;7.90;42.20;;;;;;4893578;29;20045;-95
2021/03/08 16:34:45;;;;;;;10.18;2.60;;;7.70;42.40;;;;;;4893342;29;20165;-96
2021/03/08 16:37:13;;;;;;;5.55;2.10;;;7.70;42.60;;;;;;4867376;29;20061;-96
2021/03/08 16:39:41;;;;;;;6.95;2.30;;;7.60;42.40;;;;;;4877158;29;20057;-96
2021/03/08 16:42:13;;;;;;;6.25;3.25;;;7.40;43.20;;;;;;4866852;29;20057;-96
2021/03/08 16:44:44;;;;;;;7.95;2.40;;;7.30;43.30;;;;;;4891433;29;20078;-96
2021/03/08 16:47:14;;;;;;;6.93;2.17;;;7.20;43.50;;;;;;4843489;29;20061;-96
2021/03/08 16:49:42;;;;;;;;;;;7.10;43.90;;;;;;4884732;29;20048;-95
2021/03/08 16:52:11;;;;;;;7.82;2.03;;;6.90;44.00;;;;;;4867538;29;19924;-96
2021/03/08 16:54:39;;;;;;;8.80;2.88;;;6.80;44.50;;;;;;4891705;29;20061;-96
2021/03/08 16:57:11;;;;;;;5.88;3.03;;;6.70;44.80;;;;;;4870761;29;20053;-96
2021/03/08 16:59:39;;;;;;;6.00;2.50;;;6.70;45.40;;;;;;4858715;29;20523;-96
2021/03/08 17:02:08;;;;;;;11.20;2.83;;;6.50;45.90;;;;;;4849590;29;20053;-96
2021/03/08 17:04:36;;;;;;;4.47;2.33;;;6.30;46.80;;;;;;4899416;29;20057;-93
2021/03/08 17:07:04;;;;;;;6.20;2.28;;;6.20;47.20;;;;;;4836278;29;20081;-91
2021/03/08 17:09:32;;;;;;;8.07;2.85;;;6.10;47.50;;;;;;4871235;29;20056;-92
2021/03/08 17:12:00;;;;;;;5.78;2.70;;;6.00;47.60;;;;;;4855061;29;20050;-92
2021/03/08 17:14:27;;;;;;;7.97;2.65;;;5.90;48.00;;;;;;4856624;29;20053;-92
2021/03/08 17:16:54;;;;;;;7.88;2.67;;;5.80;48.00;;;;;;4867529;29;20068;-94
2021/03/08 17:19:23;;;;;;;6.78;2.10;;;5.70;48.40;;;;;;4881351;29;20064;-95
2021/03/08 17:21:54;;;;;;;10.95;2.70;;;5.70;48.70;;;;;;4866530;29;20053;-96
2021/03/08 17:24:22;;;;;;;9.27;3.90;;;5.60;48.70;;;;;;4878924;29;20077;-94
2021/03/08 17:26:49;;;;;;;8.27;3.42;;;5.50;48.80;;;;;;4864101;29;20049;-92
2021/03/08 17:29:18;;;;;;;18.13;3.90;;;5.50;48.90;;;;;;4864028;29;20085;-96
2021/03/08 17:31:46;;;;;;;7.65;3.50;;;5.40;49.20;;;;;;4840683;29;20506;-96
2021/03/08 17:34:13;;;;;;;6.70;3.03;;;5.30;49.40;;;;;;4846615;29;20064;-96
2021/03/08 17:36:42;;;;;;;12.60;4.43;;;5.20;49.70;;;;;;4869603;29;20057;-96
2021/03/08 17:39:10;;;;;;;9.05;3.50;;;5.20;49.80;;;;;;4880790;29;20062;-95
2021/03/08 17:41:37;;;;;;;12.85;4.10;;;5.10;49.80;;;;;;4878565;29;20049;-96
2021/03/08 17:44:06;;;;;;;15.18;5.70;;;5.00;50.20;;;;;;4864578;29;20105;-95
2021/03/08 17:46:33;;;;;;;17.02;4.50;;;4.90;50.40;;;;;;4831570;29;20054;-94
2021/03/08 17:49:01;;;;;;;11.18;3.63;;;4.90;50.80;;;;;;4835046;29;20062;-95
2021/03/08 17:51:28;;;;;;;13.45;3.95;;;4.90;50.80;;;;;;4866165;29;20057;-93
2021/03/08 17:53:56;;;;;;;13.98;4.60;;;4.90;51.00;;;;;;4856050;29;20053;-95
2021/03/08 17:56:24;;;;;;;14.13;4.65;;;4.80;51.40;;;;;;4874493;29;20063;-96
2021/03/08 17:58:52;;;;;;;23.67;9.00;;;4.70;51.80;;;;;;4892870;29;20057;-96
2021/03/08 18:01:23;;;;;;;31.30;11.35;;;4.70;52.00;;;;;;4875055;29;20054;-92
2021/03/08 18:03:55;;;;;;;32.83;11.70;;;4.60;52.10;;;;;;4848265;29;20061;-91
2021/03/08 18:06:29;;;;;;;34.60;13.35;;;4.70;52.50;;;;;;4867584;29;20483;-96
2021/03/08 18:08:57;;;;;;;39.60;15.70;;;4.70;52.70;;;;;;4820820;29;20062;-95
2021/03/08 18:11:25;;;;;;;41.08;16.95;;;4.60;52.50;;;;;;4836362;29;20050;-93
2021/03/08 18:13:54;;;;;;;41.00;16.08;;;4.50;52.80;;;;;;4849223;29;20061;-94
2021/03/08 18:16:21;;;;;;;39.42;15.27;;;4.50;53.30;;;;;;4868780;29;20057;-94
2021/03/08 18:18:50;;;;;;;39.33;13.98;;;4.40;54.00;;;;;;4844550;29;20068;-95
2021/03/08 18:21:30;;;;;;;27.10;10.40;;;4.30;54.30;;;;;;4836487;29;20065;-94
2021/03/08 18:24:00;;;;;;;25.20;9.38;;;4.30;54.80;;;;;;4855702;29;20404;-95
2021/03/08 18:26:28;;;;;;;25.48;8.88;;;4.30;55.20;;;;;;4853685;29;20057;-95
2021/03/08 18:28:57;;;;;;;22.80;8.43;;;4.30;55.40;;;;;;4879316;29;20065;-93
2021/03/08 18:31:24;;;;;;;26.52;8.40;;;4.10;56.00;;;;;;4879134;29;20053;-93
2021/03/08 18:33:52;;;;;;;23.67;10.25;;;4.00;56.80;;;;;;4878470;29;20057;-93
2021/03/08 18:36:20;;;;;;;37.17;14.40;;;4.00;57.10;;;;;;4866917;29;20064;-92
2021/03/08 18:38:52;;;;;;;38.72;14.05;;;4.00;58.00;;;;;;4897714;29;20037;-85
2021/03/08 18:41:38;;;;;;;39.17;12.82;;;3.90;58.30;;;;;;4890502;29;20051;-84
2021/03/08 18:50:33;;;;;;;16.52;6.75;;;3.70;58.80;;;;;;3397320;23;20024;-83
2021/03/08 18:53:17;;;;;;;11.15;4.80;;;3.70;59.20;;;;;;4881576;29;20094;-83
2021/03/08 18:56:07;;;;;;;23.27;6.38;;;3.70;59.50;;;;;;4889221;29;20053;-84
2021/03/08 18:59:34;;;;;;;17.80;6.93;;;3.70;59.60;;;;;;4891427;29;20059;-85
2021/03/08 19:02:15;;;;;;;16.65;5.15;;;3.70;59.80;;;;;;4903984;29;20063;-84
2021/03/08 19:08:11;;;;;;;13.80;4.72;;;3.70;61.10;;;;;;5249009;23;20036;-83
2021/03/08 19:11:21;;;;;;;10.55;4.60;;;3.60;61.30;;;;;;4869662;29;20072;-84
2021/03/08 19:14:22;;;;;;;19.20;5.53;;;3.60;61.60;;;;;;4886322;29;20060;-85
2021/03/08 19:16:55;;;;;;;19.85;6.03;;;3.60;62.00;;;;;;4872153;29;20041;-85
2021/03/08 19:20:15;;;;;;;21.00;5.95;;;3.50;62.60;;;;;;4881287;29;20036;-85
2021/03/08 19:22:46;;;;;;;14.70;5.75;;;3.50;63.40;;;;;;4891631;29;20040;-85
2021/03/08 19:25:16;;;;;;;22.08;7.55;;;3.50;64.00;;;;;;4891199;29;20067;-84
2021/03/08 19:27:48;;;;;;;14.98;5.45;;;3.40;64.40;;;;;;4905880;29;20037;-84
2021/03/08 19:33:33;;;;;;;18.25;5.20;;;3.30;66.60;;;;;;4887416;29;20056;-84
2021/03/08 19:36:09;;;;;;;17.23;5.53;;;3.20;67.70;;;;;;4882506;29;20032;-83
2021/03/08 19:38:41;;;;;;;11.52;5.05;;;3.20;67.50;;;;;;4892214;29;20037;-84
2021/03/08 19:41:22;;;;;;;14.40;5.47;;;3.10;68.50;;;;;;4875708;29;20067;-85
2021/03/08 19:44:04;;;;;;;9.57;4.75;;;3.10;69.20;;;;;;4904114;29;20044;-84
2021/03/08 19:52:18;;;;;;;13.82;6.13;;;2.90;73.50;;;;;;5476473;23;19922;-84
2021/03/08 19:54:55;;;;;;;16.35;6.28;;;2.90;73.40;;;;;;4911394;29;20043;-84
2021/03/08 19:57:26;;;;;;;15.38;6.70;;;2.90;73.00;;;;;;4906086;29;20049;-86
2021/03/08 20:01:04;;;;;;;13.98;5.65;;;2.80;72.80;;;;;;4877223;29;20029;-85
2021/03/08 20:55:14;;;;;;;15.65;7.35;;;2.40;78.40;;;;;;4901815;29;20048;-83
2021/03/08 22:54:34;;;;;;;14.13;5.80;;;1.80;91.00;;;;;;5095442;23;20204;-85
2021/03/08 22:57:23;;;;;;;13.47;5.53;;;1.80;91.30;;;;;;4814606;29;20051;-86
2021/03/08 23:05:32;;;;;;;12.57;4.83;;;1.80;92.20;;;;;;5181046;23;20028;-86
2021/03/08 23:16:46;;;;;;;12.03;5.17;;;1.80;93.00;;;;;;4941046;29;20025;-87
2021/03/08 23:52:03;;;;;;;13.70;5.27;;;1.80;96.20;;;;;;5740029;23;20045;-84
2021/03/08 23:54:38;;;;;;;12.63;4.73;;;1.80;95.50;;;;;;4923476;29;20056;-85
